Time;durP1;ratioP1;P1;durP2;ratioP2;P2;SDS_P1;SDS_P2;PMS_P1;PMS_P2;Temp;Humidity;BMP_temperature;BMP_pressure;BME280_temperature;BME280_humidity;BME280_pressure;Samples;Min_cycle;Max_cycle;Signal;HPM_P1;HPM_P2
2024/04/10 00:02:20;;;;;;;12.98;3.22;;;;;;;;;;5377224;26;20004;-82
2024/04/10 00:04:47;;;;;;;13.27;3.60;;;;;;;;;;5380773;26;20471;-82
2024/04/10 00:07:13;;;;;;;17.92;4.30;;;;;;;;;;5381070;26;20014;-81
2024/04/10 00:09:39;;;;;;;21.58;4.00;;;;;;;;;;5378803;26;20007;-82
2024/04/10 00:12:06;;;;;;;14.80;4.10;;;;;;;;;;5381379;26;20004;-81
2024/04/10 00:14:34;;;;;;;15.70;3.75;;;;;;;;;;5378980;26;20015;-81
2024/04/10 00:17:01;;;;;;;19.27;4.05;;;;;;;;;;5379197;26;20004;-81
2024/04/10 00:19:27;;;;;;;16.10;3.53;;;;;;;;;;5381075;26;19996;-83
2024/04/10 00:21:56;;;;;;;14.65;3.30;;;;;;;;;;5382115;26;20054;-82
2024/04/10 00:24:22;;;;;;;16.10;4.40;;;;;;;;;;5380585;26;20353;-84
2024/04/10 00:26:52;;;;;;;23.92;4.90;;;;;;;;;;5380376;26;20263;-82
2024/04/10 00:29:18;;;;;;;17.95;4.20;;;;;;;;;;5380795;26;20011;-82
2024/04/10 00:31:50;;;;;;;16.52;3.60;;;;;;;;;;5380528;26;20004;-81
2024/04/10 00:34:17;;;;;;;18.30;4.20;;;;;;;;;;5380383;26;20073;-81
2024/04/10 00:36:43;;;;;;;19.50;5.00;;;;;;;;;;5379749;26;20000;-81
2024/04/10 00:39:09;;;;;;;19.27;5.15;;;;;;;;;;5378197;26;20437;-81
2024/04/10 00:41:35;;;;;;;12.38;3.10;;;;;;;;;;5378194;26;20004;-81
2024/04/10 00:44:01;;;;;;;19.65;3.97;;;;;;;;;;5378399;26;20011;-80
2024/04/10 00:46:28;;;;;;;16.00;3.70;;;;;;;;;;5378188;26;20069;-82
2024/04/10 00:48:54;;;;;;;14.32;3.20;;;;;;;;;;5378475;26;20000;-81
2024/04/10 00:51:20;;;;;;;12.45;3.70;;;;;;;;;;5379834;26;20005;-81
2024/04/10 00:53:47;;;;;;;15.70;4.22;;;;;;;;;;5380101;26;20011;-82
2024/04/10 00:56:13;;;;;;;19.35;4.78;;;;;;;;;;5378406;26;20011;-82
2024/04/10 00:58:40;;;;;;;20.15;3.65;;;;;;;;;;5379738;26;20011;-82
2024/04/10 01:01:07;;;;;;;21.13;6.05;;;;;;;;;;5380209;26;20012;-82
2024/04/10 01:03:35;;;;;;;15.45;3.30;;;;;;;;;;5379949;26;20004;-82
2024/04/10 01:06:05;;;;;;;18.67;3.72;;;;;;;;;;5378221;26;19996;-81
2024/04/10 01:08:31;;;;;;;19.55;4.65;;;;;;;;;;5379559;26;20004;-82
2024/04/10 01:11:01;;;;;;;25.98;4.22;;;;;;;;;;5380064;26;20004;-81
2024/04/10 01:13:28;;;;;;;17.10;3.80;;;;;;;;;;5381568;26;20077;-81
2024/04/10 01:15:54;;;;;;;14.57;3.70;;;;;;;;;;5383215;26;20701;-81
2024/04/10 01:18:20;;;;;;;24.67;5.13;;;;;;;;;;5383048;26;20012;-82
2024/04/10 01:20:48;;;;;;;17.85;4.47;;;;;;;;;;5381302;26;20004;-80
2024/04/10 01:23:15;;;;;;;20.30;4.75;;;;;;;;;;5383409;26;20014;-80
2024/04/10 01:25:41;;;;;;;14.55;3.58;;;;;;;;;;5381010;26;20000;-81
2024/04/10 01:28:07;;;;;;;22.23;5.03;;;;;;;;;;5381228;26;20000;-81
2024/04/10 01:30:33;;;;;;;19.55;4.15;;;;;;;;;;5381308;26;20008;-81
2024/04/10 01:33:00;;;;;;;17.00;3.70;;;;;;;;;;5380986;26;20011;-81
2024/04/10 01:35:26;;;;;;;15.60;3.67;;;;;;;;;;5382718;26;20008;-81
2024/04/10 01:37:52;;;;;;;11.57;2.92;;;;;;;;;;5382893;26;20000;-81
2024/04/10 01:40:18;;;;;;;14.35;3.92;;;;;;;;;;5380905;26;20074;-80
2024/04/10 01:42:44;;;;;;;14.30;3.90;;;;;;;;;;5382523;26;20078;-80
2024/04/10 01:45:11;;;;;;;13.98;3.63;;;;;;;;;;5381156;26;20000;-80
2024/04/10 01:47:37;;;;;;;12.23;3.95;;;;;;;;;;5382404;26;20495;-79
2024/04/10 01:50:03;;;;;;;10.73;3.83;;;;;;;;;;5381205;26;20015;-80
2024/04/10 01:52:29;;;;;;;13.10;3.88;;;;;;;;;;5380413;26;20005;-79
2024/04/10 01:54:55;;;;;;;16.83;4.20;;;;;;;;;;5382706;26;20008;-80
2024/04/10 01:57:22;;;;;;;19.38;5.47;;;;;;;;;;5382419;26;20004;-80
2024/04/10 01:59:48;;;;;;;13.73;4.35;;;;;;;;;;5380455;26;20322;-81
2024/04/10 02:02:14;;;;;;;12.93;4.20;;;;;;;;;;5380498;26;20074;-82
2024/04/10 02:04:40;;;;;;;20.10;5.38;;;;;;;;;;5380370;26;20010;-81
2024/04/10 02:07:06;;;;;;;16.67;5.30;;;;;;;;;;5380522;26;20070;-81
2024/04/10 02:09:32;;;;;;;16.92;4.32;;;;;;;;;;5382093;26;20073;-80
2024/04/10 02:11:59;;;;;;;23.05;6.55;;;;;;;;;;5380463;26;20073;-80
2024/04/10 02:14:26;;;;;;;21.08;5.25;;;;;;;;;;5380190;26;20011;-80
2024/04/10 02:16:52;;;;;;;16.33;4.65;;;;;;;;;;5380513;26;20000;-82
2024/04/10 02:19:18;;;;;;;19.10;4.63;;;;;;;;;;5380490;26;20000;-81
2024/04/10 02:21:44;;;;;;;12.07;4.07;;;;;;;;;;5379909;26;20004;-82
2024/04/10 02:24:10;;;;;;;19.67;5.90;;;;;;;;;;5379362;26;20073;-81
2024/04/10 02:26:36;;;;;;;17.58;5.15;;;;;;;;;;5379991;26;20016;-81
2024/04/10 02:29:02;;;;;;;19.48;4.82;;;;;;;;;;5380426;26;20011;-79
2024/04/10 02:31:28;;;;;;;15.23;4.65;;;;;;;;;;5380065;26;20034;-79
2024/04/10 02:33:54;;;;;;;15.63;4.95;;;;;;;;;;5382635;26;20016;-79
2024/04/10 02:36:20;;;;;;;15.60;4.47;;;;;;;;;;5381215;26;20015;-80
2024/04/10 02:38:46;;;;;;;16.58;5.60;;;;;;;;;;5382329;26;20079;-80
2024/04/10 02:41:12;;;;;;;21.70;5.30;;;;;;;;;;5380410;26;20000;-80
2024/04/10 02:43:38;;;;;;;19.85;5.47;;;;;;;;;;5381535;26;20078;-79
2024/04/10 02:46:08;;;;;;;17.92;6.03;;;;;;;;;;5380030;26;20409;-79
2024/04/10 02:48:34;;;;;;;17.25;4.68;;;;;;;;;;5379826;26;20005;-79
2024/04/10 02:51:00;;;;;;;14.70;4.97;;;;;;;;;;5381845;26;20001;-80
2024/04/10 02:53:26;;;;;;;18.75;5.45;;;;;;;;;;5381615;26;20016;-80
2024/04/10 02:55:53;;;;;;;15.95;5.20;;;;;;;;;;5379915;26;20011;-80
2024/04/10 02:58:20;;;;;;;18.27;5.80;;;;;;;;;;5379642;26;20000;-79
2024/04/10 03:00:46;;;;;;;12.30;5.15;;;;;;;;;;5379332;26;20000;-80
2024/04/10 03:03:12;;;;;;;20.85;6.47;;;;;;;;;;5379646;26;20010;-79
2024/04/10 03:05:42;;;;;;;23.00;5.32;;;;;;;;;;5381066;26;20015;-79
2024/04/10 03:08:10;;;;;;;21.08;6.43;;;;;;;;;;5381365;26;20055;-79
2024/04/10 03:10:36;;;;;;;11.60;4.78;;;;;;;;;;5379436;26;20000;-80
2024/04/10 03:13:02;;;;;;;17.02;5.05;;;;;;;;;;5379703;26;20394;-80
2024/04/10 03:15:28;;;;;;;22.23;6.60;;;;;;;;;;5381169;26;20038;-80
2024/04/10 03:17:54;;;;;;;18.08;6.20;;;;;;;;;;5381276;26;20463;-80
2024/04/10 03:20:20;;;;;;;15.40;5.35;;;;;;;;;;5379480;26;20000;-81
2024/04/10 03:22:47;;;;;;;22.00;6.80;;;;;;;;;;5379196;26;20005;-80
2024/04/10 03:25:13;;;;;;;24.35;5.95;;;;;;;;;;5379487;26;20012;-80
2024/04/10 03:27:40;;;;;;;18.77;5.32;;;;;;;;;;5380911;26;20020;-81
2024/04/10 03:30:09;;;;;;;18.63;5.40;;;;;;;;;;5379403;26;20000;-80
2024/04/10 03:32:36;;;;;;;16.00;4.68;;;;;;;;;;5381140;26;20011;-80
2024/04/10 03:35:03;;;;;;;17.50;6.00;;;;;;;;;;5380657;26;20015;-79
2024/04/10 03:37:29;;;;;;;16.83;4.97;;;;;;;;;;5380835;26;20435;-80
2024/04/10 03:39:56;;;;;;;18.60;4.70;;;;;;;;;;5380573;26;20011;-79
2024/04/10 03:42:22;;;;;;;18.08;5.53;;;;;;;;;;5381936;26;20011;-79
2024/04/10 03:44:48;;;;;;;15.23;5.32;;;;;;;;;;5381091;26;20008;-80
2024/04/10 03:47:14;;;;;;;18.25;5.60;;;;;;;;;;5379409;26;20011;-80
2024/04/10 03:49:40;;;;;;;18.25;5.47;;;;;;;;;;5378864;26;20010;-80
2024/04/10 03:52:06;;;;;;;24.02;5.47;;;;;;;;;;5379351;26;20000;-79
2024/04/10 03:54:32;;;;;;;21.13;4.82;;;;;;;;;;5379359;26;20091;-79
2024/04/10 03:56:58;;;;;;;24.15;4.47;;;;;;;;;;5381384;26;20015;-79
2024/04/10 03:59:24;;;;;;;15.93;4.55;;;;;;;;;;5378621;26;20432;-79
2024/04/10 04:01:50;;;;;;;15.02;5.32;;;;;;;;;;5380541;26;20011;-80
2024/04/10 04:04:16;;;;;;;20.50;6.20;;;;;;;;;;5380891;26;20012;-81
2024/04/10 04:06:44;;;;;;;20.83;4.80;;;;;;;;;;5378898;26;20337;-82
2024/04/10 04:09:10;;;;;;;21.48;6.22;;;;;;;;;;5379221;26;20004;-81
2024/04/10 04:11:36;;;;;;;18.65;4.93;;;;;;;;;;5378842;26;20451;-82
2024/04/10 04:14:07;;;;;;;18.15;5.07;;;;;;;;;;5379311;26;20004;-83
2024/04/10 04:16:33;;;;;;;;;;;;;;;;;;5379700;26;20011;-82
2024/04/10 04:19:00;;;;;;;17.52;4.53;;;;;;;;;;5379171;26;19951;-82
2024/04/10 04:21:27;;;;;;;14.77;4.45;;;;;;;;;;5378613;26;20332;-83
2024/04/10 04:23:53;;;;;;;17.77;4.85;;;;;;;;;;5380845;26;20012;-83
2024/04/10 04:26:19;;;;;;;18.67;5.32;;;;;;;;;;5379228;26;20451;-82
2024/04/10 04:28:46;;;;;;;20.15;5.47;;;;;;;;;;5378612;26;20015;-80
2024/04/10 04:31:14;;;;;;;19.95;4.82;;;;;;;;;;5378968;26;20097;-80
2024/04/10 04:33:40;;;;;;;14.02;3.83;;;;;;;;;;5380180;26;20004;-79
2024/04/10 04:36:07;;;;;;;16.42;4.20;;;;;;;;;;5380286;26;20004;-80
2024/04/10 04:38:33;;;;;;;25.30;5.22;;;;;;;;;;5378555;26;20004;-79
2024/04/10 04:41:00;;;;;;;18.48;4.18;;;;;;;;;;5380351;26;20000;-80
2024/04/10 04:43:26;;;;;;;12.95;4.20;;;;;;;;;;5380713;26;20004;-79
2024/04/10 04:45:52;;;;;;;17.88;4.20;;;;;;;;;;5381072;26;20010;-79
2024/04/10 04:48:18;;;;;;;17.80;4.82;;;;;;;;;;5378066;26;20102;-79
2024/04/10 04:50:46;;;;;;;18.85;4.68;;;;;;;;;;5379239;26;20011;-80
2024/04/10 04:53:12;;;;;;;25.13;4.80;;;;;;;;;;5378729;26;20015;-80
2024/04/10 04:55:39;;;;;;;18.25;4.47;;;;;;;;;;5377899;26;20411;-80
2024/04/10 04:58:06;;;;;;;20.30;4.18;;;;;;;;;;5379552;26;20000;-81
2024/04/10 05:00:35;;;;;;;22.15;4.32;;;;;;;;;;5379369;26;20000;-81
2024/04/10 05:03:03;;;;;;;18.75;4.63;;;;;;;;;;5379626;26;20004;-81
2024/04/10 05:05:33;;;;;;;26.00;5.00;;;;;;;;;;5379257;26;20004;-81
2024/04/10 05:07:59;;;;;;;17.92;4.38;;;;;;;;;;5377947;26;20012;-81
2024/04/10 05:10:25;;;;;;;21.20;4.25;;;;;;;;;;5378046;26;20016;-81
2024/04/10 05:12:51;;;;;;;18.83;4.72;;;;;;;;;;5377949;26;20074;-81
2024/04/10 05:15:17;;;;;;;22.95;4.53;;;;;;;;;;5379386;26;20011;-81
2024/04/10 05:17:44;;;;;;;22.98;4.75;;;;;;;;;;5379637;26;20005;-82
2024/04/10 05:20:14;;;;;;;19.33;4.50;;;;;;;;;;5377511;26;20000;-81
2024/04/10 05:22:41;;;;;;;19.83;4.70;;;;;;;;;;5378973;26;20442;-80
2024/04/10 05:25:07;;;;;;;18.30;3.90;;;;;;;;;;5379254;26;20008;-82
2024/04/10 05:27:33;;;;;;;20.75;5.60;;;;;;;;;;5377657;26;20394;-82
2024/04/10 05:30:00;;;;;;;12.95;4.25;;;;;;;;;;5379050;26;20000;-81
2024/04/10 05:32:27;;;;;;;19.40;4.80;;;;;;;;;;5377708;26;20081;-82
2024/04/10 05:34:53;;;;;;;15.05;3.95;;;;;;;;;;5377866;26;20015;-82
2024/04/10 05:37:20;;;;;;;19.70;3.97;;;;;;;;;;5378502;26;20444;-81
2024/04/10 05:39:46;;;;;;;18.35;4.30;;;;;;;;;;5380134;26;20974;-82
2024/04/10 05:42:12;;;;;;;18.65;4.40;;;;;;;;;;5381076;26;20000;-83
2024/04/10 05:44:38;;;;;;;13.25;3.90;;;;;;;;;;5378177;26;19997;-82
2024/04/10 05:47:04;;;;;;;18.42;4.70;;;;;;;;;;5378330;26;20000;-81
2024/04/10 05:49:31;;;;;;;17.90;4.25;;;;;;;;;;5379393;26;20094;-82
2024/04/10 05:51:58;;;;;;;19.60;4.32;;;;;;;;;;5379320;26;20398;-81
2024/04/10 05:54:24;;;;;;;24.25;4.88;;;;;;;;;;5379932;26;20011;-82
2024/04/10 05:56:50;;;;;;;21.65;4.15;;;;;;;;;;5377417;26;20039;-83
2024/04/10 05:59:16;;;;;;;17.45;4.20;;;;;;;;;;5383151;26;20000;-80
2024/04/10 06:01:42;;;;;;;16.67;4.13;;;;;;;;;;5380361;26;20000;-80
2024/04/10 06:04:08;;;;;;;18.13;4.43;;;;;;;;;;5380615;26;20000;-79
2024/04/10 06:06:35;;;;;;;20.00;4.55;;;;;;;;;;5381755;26;20459;-78
2024/04/10 06:09:01;;;;;;;22.30;4.80;;;;;;;;;;5380466;26;20008;-79
2024/04/10 06:11:29;;;;;;;19.88;4.80;;;;;;;;;;5380241;26;20004;-79
2024/04/10 06:13:57;;;;;;;22.52;4.85;;;;;;;;;;5380356;26;20008;-79
2024/04/10 06:16:23;;;;;;;18.65;5.75;;;;;;;;;;5382283;26;20455;-78
2024/04/10 06:18:49;;;;;;;27.58;7.15;;;;;;;;;;5379991;26;20024;-78
2024/04/10 06:21:15;;;;;;;15.50;4.80;;;;;;;;;;5380438;26;20000;-79
2024/04/10 06:23:42;;;;;;;18.45;4.53;;;;;;;;;;5379794;26;20019;-78
2024/04/10 06:26:08;;;;;;;19.80;5.15;;;;;;;;;;5380017;26;20001;-78
2024/04/10 06:28:34;;;;;;;17.67;3.40;;;;;;;;;;5381637;26;20103;-78
2024/04/10 06:31:01;;;;;;;20.65;4.72;;;;;;;;;;5381990;26;20004;-78
2024/04/10 06:33:28;;;;;;;12.40;3.60;;;;;;;;;;5378553;26;20081;-76
2024/04/10 06:35:54;;;;;;;14.32;4.13;;;;;;;;;;5378842;26;20001;-78
2024/04/10 06:38:20;;;;;;;20.60;4.70;;;;;;;;;;5379994;26;20008;-76
2024/04/10 06:41:01;;;;;;;30.15;4.95;;;;;;;;;;5379386;26;20456;-78
2024/04/10 06:43:27;;;;;;;;;;;;;;;;;;5380271;26;20077;-78
2024/04/10 06:46:00;;;;;;;19.25;4.05;;;;;;;;;;5379706;26;20339;-78
2024/04/10 06:48:27;;;;;;;14.20;4.35;;;;;;;;;;5381473;26;20000;-78
2024/04/10 06:51:00;;;;;;;18.65;4.35;;;;;;;;;;5379623;26;20000;-78
2024/04/10 06:53:26;;;;;;;14.50;4.32;;;;;;;;;;5379618;26;20020;-78
2024/04/10 06:55:55;;;;;;;19.15;4.45;;;;;;;;;;5381267;26;20014;-77
2024/04/10 06:58:22;;;;;;;13.40;4.60;;;;;;;;;;5380124;26;20019;-78
2024/04/10 07:00:58;;;;;;;19.30;3.95;;;;;;;;;;5379864;26;20000;-78
2024/04/10 07:03:27;;;;;;;18.08;4.22;;;;;;;;;;5379740;26;20014;-78
2024/04/10 07:06:03;;;;;;;21.05;4.45;;;;;;;;;;5379030;26;20009;-77
2024/04/10 07:08:29;;;;;;;15.10;4.60;;;;;;;;;;5379510;26;20062;-77
2024/04/10 07:10:55;;;;;;;16.63;3.83;;;;;;;;;;5380133;26;20032;-77
2024/04/10 07:13:21;;;;;;;13.90;4.30;;;;;;;;;;5379284;26;20000;-78
2024/04/10 07:15:56;;;;;;;17.65;4.38;;;;;;;;;;5379056;26;20007;-78
2024/04/10 07:18:22;;;;;;;16.00;4.93;;;;;;;;;;5379104;26;20008;-78
2024/04/10 07:20:57;;;;;;;18.13;3.85;;;;;;;;;;5378868;26;20012;-78
2024/04/10 07:23:23;;;;;;;15.73;4.13;;;;;;;;;;5379108;26;20289;-78
2024/04/10 07:25:49;;;;;;;16.15;4.53;;;;;;;;;;5378851;26;20069;-78
2024/04/10 07:28:15;;;;;;;15.68;4.55;;;;;;;;;;5380764;26;20077;-78
2024/04/10 07:30:48;;;;;;;16.80;4.18;;;;;;;;;;5378374;26;20000;-78
2024/04/10 07:33:14;;;;;;;19.23;4.85;;;;;;;;;;5379096;26;20045;-78
2024/04/10 07:35:40;;;;;;;15.18;3.63;;;;;;;;;;5378750;26;20004;-78
2024/04/10 07:38:06;;;;;;;18.42;4.10;;;;;;;;;;5378523;26;20004;-78
2024/04/10 07:40:32;;;;;;;18.90;4.82;;;;;;;;;;5378723;26;20014;-78
2024/04/10 07:42:58;;;;;;;18.23;4.00;;;;;;;;;;5380779;26;20012;-77
2024/04/10 07:45:27;;;;;;;17.23;4.65;;;;;;;;;;5379057;26;20070;-78
2024/04/10 07:47:54;;;;;;;14.20;4.05;;;;;;;;;;5378616;26;20329;-78
2024/04/10 07:50:20;;;;;;;16.20;5.30;;;;;;;;;;5380804;26;20418;-78
2024/04/10 07:52:46;;;;;;;15.27;3.78;;;;;;;;;;5378533;26;20083;-78
2024/04/10 07:55:12;;;;;;;20.45;3.85;;;;;;;;;;5378689;26;20004;-78
2024/04/10 07:57:39;;;;;;;12.95;3.13;;;;;;;;;;5377943;26;20016;-78
2024/04/10 08:00:08;;;;;;;22.15;4.22;;;;;;;;;;5378159;26;20007;-78
2024/04/10 08:02:34;;;;;;;15.32;3.90;;;;;;;;;;5378452;26;20015;-77
2024/04/10 08:05:00;;;;;;;15.45;3.20;;;;;;;;;;5378288;26;20012;-78
2024/04/10 08:07:26;;;;;;;15.07;3.38;;;;;;;;;;5378370;26;20012;-77
2024/04/10 08:09:52;;;;;;;22.33;4.93;;;;;;;;;;5378306;26;20012;-78
2024/04/10 08:12:18;;;;;;;9.48;2.60;;;;;;;;;;5380375;26;20011;-77
2024/04/10 08:14:45;;;;;;;13.65;3.50;;;;;;;;;;5378195;26;20011;-77
2024/04/10 08:17:11;;;;;;;16.15;3.60;;;;;;;;;;5378502;26;20375;-78
2024/04/10 08:19:37;;;;;;;16.30;3.38;;;;;;;;;;5380177;26;20000;-77
2024/04/10 08:22:04;;;;;;;13.60;3.28;;;;;;;;;;5377107;26;20452;-78
2024/04/10 08:24:30;;;;;;;16.88;3.75;;;;;;;;;;5378341;26;20011;-78
2024/04/10 08:26:56;;;;;;;13.43;2.85;;;;;;;;;;5378415;26;20016;-78
2024/04/10 08:29:22;;;;;;;21.92;4.35;;;;;;;;;;5378359;26;20004;-78
2024/04/10 08:31:48;;;;;;;13.25;4.70;;;;;;;;;;5377941;26;20004;-78
2024/04/10 08:34:14;;;;;;;16.25;2.72;;;;;;;;;;5378348;26;20004;-79
2024/04/10 08:36:40;;;;;;;13.98;4.20;;;;;;;;;;5376962;26;20039;-78
2024/04/10 08:39:06;;;;;;;21.40;5.70;;;;;;;;;;5379923;26;20007;-78
2024/04/10 08:43:21;;;;;;;16.13;3.72;;;;;;;;;;5543423;25;20741;-79
2024/04/10 08:45:48;;;;;;;13.40;3.10;;;;;;;;;;5504629;26;20094;-78
2024/04/10 08:48:14;;;;;;;14.23;3.47;;;;;;;;;;5504908;26;19994;-79
2024/04/10 08:50:41;;;;;;;16.08;3.78;;;;;;;;;;5504841;26;20001;-78
2024/04/10 08:53:09;;;;;;;10.90;2.53;;;;;;;;;;5492685;25;20005;-80
2024/04/10 08:55:35;;;;;;;12.57;2.80;;;;;;;;;;5468100;26;20031;-79
2024/04/10 08:58:02;;;;;;;16.77;3.42;;;;;;;;;;5468635;26;19998;-78
2024/04/10 09:00:29;;;;;;;15.57;2.90;;;;;;;;;;5468222;26;20326;-81
2024/04/10 09:02:56;;;;;;;12.30;3.03;;;;;;;;;;5469485;26;19998;-80
2024/04/10 09:05:31;;;;;;;11.20;3.15;;;;;;;;;;5469985;26;20372;-79
2024/04/10 09:07:58;;;;;;;9.68;1.80;;;;;;;;;;5469638;26;20006;-80
2024/04/10 09:10:24;;;;;;;11.95;2.78;;;;;;;;;;5468148;26;20008;-80
2024/04/10 09:12:50;;;;;;;11.82;3.08;;;;;;;;;;5469809;26;20006;-79
2024/04/10 09:15:19;;;;;;;15.05;3.42;;;;;;;;;;5468466;26;20006;-78
2024/04/10 09:17:46;;;;;;;13.75;3.22;;;;;;;;;;5467773;26;20014;-80
2024/04/10 09:20:16;;;;;;;10.02;2.95;;;;;;;;;;5469690;26;20010;-79
2024/04/10 09:22:43;;;;;;;14.27;3.70;;;;;;;;;;5469149;26;20006;-80
2024/04/10 09:25:15;;;;;;;12.98;3.13;;;;;;;;;;5469631;26;20449;-83
2024/04/10 09:27:42;;;;;;;10.75;2.45;;;;;;;;;;5467257;26;20332;-80
2024/04/10 09:30:08;;;;;;;11.82;3.30;;;;;;;;;;5467582;26;20439;-80
2024/04/10 09:32:36;;;;;;;14.65;3.40;;;;;;;;;;5467563;26;19998;-79
2024/04/10 09:35:06;;;;;;;12.63;3.63;;;;;;;;;;5467331;26;20484;-78
2024/04/10 09:37:34;;;;;;;15.63;3.33;;;;;;;;;;5467459;26;20010;-83
2024/04/10 09:40:00;;;;;;;9.48;2.90;;;;;;;;;;5467354;26;20318;-82
2024/04/10 09:42:27;;;;;;;8.93;2.63;;;;;;;;;;5467219;26;20006;-80
2024/04/10 09:45:08;;;;;;;12.48;3.20;;;;;;;;;;5467271;26;20119;-79
2024/04/10 09:47:37;;;;;;;10.27;2.60;;;;;;;;;;5467434;26;20002;-78
2024/04/10 09:50:05;;;;;;;11.82;2.90;;;;;;;;;;5467286;26;20438;-79
2024/04/10 09:52:33;;;;;;;9.70;3.05;;;;;;;;;;5464866;26;20006;-78
2024/04/10 09:54:59;;;;;;;9.52;2.75;;;;;;;;;;5450835;26;20036;-83
2024/04/10 09:57:27;;;;;;;10.68;2.88;;;;;;;;;;5453877;26;20009;-83
2024/04/10 09:59:53;;;;;;;12.25;3.00;;;;;;;;;;5451387;26;20003;-83
2024/04/10 10:02:19;;;;;;;16.58;3.88;;;;;;;;;;5453676;26;20003;-83
2024/04/10 10:04:46;;;;;;;9.80;2.60;;;;;;;;;;5451477;26;20015;-83
2024/04/10 10:07:20;;;;;;;9.30;3.00;;;;;;;;;;5453557;26;20002;-83
2024/04/10 10:09:46;;;;;;;6.45;1.70;;;;;;;;;;5451267;26;20026;-83
2024/04/10 10:12:12;;;;;;;5.82;1.73;;;;;;;;;;5453507;26;20003;-83
2024/04/10 10:14:38;;;;;;;11.02;2.65;;;;;;;;;;5454103;26;20003;-83
2024/04/10 10:17:08;;;;;;;9.73;3.13;;;;;;;;;;5451503;26;20359;-83
2024/04/10 10:19:37;;;;;;;9.65;2.63;;;;;;;;;;5451668;26;20469;-80
2024/04/10 10:22:04;;;;;;;10.53;2.57;;;;;;;;;;5451773;26;19999;-82
2024/04/10 10:24:30;;;;;;;11.23;2.33;;;;;;;;;;5453036;26;20312;-82
2024/04/10 10:27:03;;;;;;;8.93;2.20;;;;;;;;;;5451100;26;20009;-79
2024/04/10 10:29:31;;;;;;;10.43;2.58;;;;;;;;;;5451604;26;20011;-80
2024/04/10 10:32:05;;;;;;;10.90;2.90;;;;;;;;;;5450792;26;20013;-80
2024/04/10 10:34:31;;;;;;;14.60;3.50;;;;;;;;;;5453052;26;19998;-79
2024/04/10 10:37:06;;;;;;;10.82;2.65;;;;;;;;;;5452770;26;20482;-79
2024/04/10 10:39:32;;;;;;;10.07;1.80;;;;;;;;;;5450967;26;20010;-79
2024/04/10 10:42:05;;;;;;;16.77;2.95;;;;;;;;;;5452385;26;19999;-80
2024/04/10 10:44:32;;;;;;;14.32;2.53;;;;;;;;;;5451009;26;20439;-79
2024/04/10 10:46:58;;;;;;;10.45;2.92;;;;;;;;;;5452559;26;20373;-80
2024/04/10 10:49:27;;;;;;;8.20;2.03;;;;;;;;;;5450928;26;20014;-79
2024/04/10 10:51:58;;;;;;;10.83;2.10;;;;;;;;;;5450760;26;20010;-79
2024/04/10 10:54:24;;;;;;;7.50;2.05;;;;;;;;;;5450932;26;20009;-79
2024/04/10 10:56:50;;;;;;;11.73;2.22;;;;;;;;;;5450578;26;20336;-79
2024/04/10 10:59:16;;;;;;;18.50;2.90;;;;;;;;;;5450974;26;20014;-79
2024/04/10 11:01:42;;;;;;;14.30;2.67;;;;;;;;;;5450379;26;20016;-79
2024/04/10 11:04:14;;;;;;;11.85;2.45;;;;;;;;;;5452765;26;19998;-79
2024/04/10 11:06:40;;;;;;;10.13;2.35;;;;;;;;;;5452568;26;20042;-79
2024/04/10 11:09:09;;;;;;;11.45;1.83;;;;;;;;;;5450760;26;20399;-80
2024/04/10 11:11:35;;;;;;;8.07;1.80;;;;;;;;;;5450312;26;20071;-79
2024/04/10 11:14:02;;;;;;;9.48;2.00;;;;;;;;;;5450897;26;20388;-78
2024/04/10 11:16:28;;;;;;;9.05;1.77;;;;;;;;;;5450421;26;20034;-80
2024/04/10 11:18:54;;;;;;;8.75;1.80;;;;;;;;;;5452785;26;20003;-80
2024/04/10 11:21:24;;;;;;;9.05;2.05;;;;;;;;;;5452697;26;20003;-80
2024/04/10 11:23:50;;;;;;;9.55;2.20;;;;;;;;;;5452160;26;19999;-80
2024/04/10 11:26:16;;;;;;;11.85;1.85;;;;;;;;;;5453491;26;19998;-81
2024/04/10 11:28:43;;;;;;;7.22;1.70;;;;;;;;;;5453027;26;20003;-80
2024/04/10 11:31:10;;;;;;;9.07;1.63;;;;;;;;;;5452941;26;20006;-80
2024/04/10 11:33:36;;;;;;;10.38;2.28;;;;;;;;;;5452803;26;20003;-80
2024/04/10 11:36:02;;;;;;;8.35;2.13;;;;;;;;;;5454010;26;20011;-81
2024/04/10 11:38:29;;;;;;;7.45;1.60;;;;;;;;;;5453151;26;20003;-81
2024/04/10 11:40:55;;;;;;;10.43;2.20;;;;;;;;;;5454660;26;20403;-80
2024/04/10 11:43:21;;;;;;;10.45;1.70;;;;;;;;;;5455717;26;19999;-80
2024/04/10 11:45:49;;;;;;;9.93;1.85;;;;;;;;;;5455748;26;20313;-80
2024/04/10 11:48:15;;;;;;;6.63;1.77;;;;;;;;;;5455062;26;20002;-80
2024/04/10 11:50:41;;;;;;;6.53;1.60;;;;;;;;;;5455824;26;20038;-80
2024/04/10 11:53:07;;;;;;;10.25;2.22;;;;;;;;;;5455443;26;20003;-80
2024/04/10 11:55:33;;;;;;;7.60;1.50;;;;;;;;;;5455235;26;20003;-79
2024/04/10 11:57:59;;;;;;;10.77;1.70;;;;;;;;;;5454965;26;20018;-80
2024/04/10 12:00:25;;;;;;;9.68;1.20;;;;;;;;;;5454237;26;20009;-79
2024/04/10 12:02:52;;;;;;;7.10;1.50;;;;;;;;;;5454786;26;20097;-79
2024/04/10 12:05:18;;;;;;;10.40;2.45;;;;;;;;;;5450162;26;20327;-80
2024/04/10 12:07:46;;;;;;;13.48;2.15;;;;;;;;;;5449489;26;19999;-79
2024/04/10 12:10:12;;;;;;;10.18;1.70;;;;;;;;;;5449850;26;20003;-79
2024/04/10 12:12:38;;;;;;;8.05;1.63;;;;;;;;;;5450043;26;20076;-80
2024/04/10 12:15:08;;;;;;;6.82;1.58;;;;;;;;;;5449361;26;19995;-80
2024/04/10 12:17:35;;;;;;;6.07;1.35;;;;;;;;;;5448970;26;20007;-80
2024/04/10 12:20:02;;;;;;;5.85;1.50;;;;;;;;;;5451029;26;20335;-80
2024/04/10 12:22:28;;;;;;;5.85;1.02;;;;;;;;;;5449940;26;19998;-79
2024/04/10 12:24:54;;;;;;;6.00;1.42;;;;;;;;;;5449158;26;20015;-80
2024/04/10 12:27:20;;;;;;;4.82;1.63;;;;;;;;;;5449439;26;20450;-80
2024/04/10 12:29:46;;;;;;;5.18;0.80;;;;;;;;;;5449171;26;19999;-80
2024/04/10 12:32:15;;;;;;;6.13;1.00;;;;;;;;;;5451172;26;19999;-80
2024/04/10 12:34:42;;;;;;;13.23;1.20;;;;;;;;;;5451526;26;20003;-81
2024/04/10 12:39:53;;;;;;;4.43;0.95;;;;;;;;;;5450822;26;20034;-80
2024/04/10 12:42:19;;;;;;;6.88;1.30;;;;;;;;;;5449099;26;19999;-80
2024/04/10 12:44:45;;;;;;;4.32;1.00;;;;;;;;;;5449360;26;20454;-80
2024/04/10 12:47:11;;;;;;;8.73;1.60;;;;;;;;;;5449267;26;20036;-80
2024/04/10 12:49:38;;;;;;;8.98;1.65;;;;;;;;;;5449481;26;20092;-80
2024/04/10 12:52:04;;;;;;;7.43;1.30;;;;;;;;;;5450878;26;20406;-82
2024/04/10 12:54:31;;;;;;;5.43;1.00;;;;;;;;;;5449340;26;19999;-80
2024/04/10 12:56:58;;;;;;;6.10;1.23;;;;;;;;;;5449069;26;19999;-80
2024/04/10 12:59:24;;;;;;;3.63;1.00;;;;;;;;;;5449497;26;20466;-80
2024/04/10 13:01:50;;;;;;;8.35;1.10;;;;;;;;;;5448804;26;20013;-80
2024/04/10 13:04:16;;;;;;;6.70;1.20;;;;;;;;;;5451166;26;20003;-80
2024/04/10 13:06:42;;;;;;;7.57;1.60;;;;;;;;;;5448941;26;20026;-82
2024/04/10 13:09:08;;;;;;;7.70;1.88;;;;;;;;;;5448839;26;20035;-81
2024/04/10 13:11:35;;;;;;;3.42;0.90;;;;;;;;;;5448885;26;20010;-81
2024/04/10 13:14:01;;;;;;;8.30;1.55;;;;;;;;;;5448585;26;20442;-81
2024/04/10 13:16:27;;;;;;;4.00;1.25;;;;;;;;;;5449406;26;19998;-81
2024/04/10 13:18:53;;;;;;;6.65;1.52;;;;;;;;;;5448452;26;20014;-81
2024/04/10 13:21:19;;;;;;;6.82;1.52;;;;;;;;;;5448691;26;20108;-81
2024/04/10 13:23:46;;;;;;;7.90;1.08;;;;;;;;;;5450437;26;19999;-81
2024/04/10 13:26:13;;;;;;;5.70;1.17;;;;;;;;;;5450571;26;20010;-81
2024/04/10 13:28:40;;;;;;;7.38;1.42;;;;;;;;;;5451905;26;20009;-80
2024/04/10 13:31:19;;;;;;;6.82;1.33;;;;;;;;;;5452206;26;20022;-81
2024/04/10 13:33:55;;;;;;;8.75;1.63;;;;;;;;;;5452368;26;20063;-80
2024/04/10 13:36:21;;;;;;;5.05;1.17;;;;;;;;;;5452578;26;20003;-81
2024/04/10 13:38:48;;;;;;;7.63;1.63;;;;;;;;;;5454930;26;20009;-79
2024/04/10 13:41:15;;;;;;;7.38;1.08;;;;;;;;;;5454375;26;20003;-81
2024/04/10 13:43:42;;;;;;;5.50;1.52;;;;;;;;;;5454125;26;20338;-81
2024/04/10 13:46:12;;;;;;;5.28;1.38;;;;;;;;;;5452134;26;20015;-81
2024/04/10 13:48:40;;;;;;;6.63;1.40;;;;;;;;;;5453933;26;20014;-80
2024/04/10 13:51:06;;;;;;;4.07;0.93;;;;;;;;;;5451799;26;19999;-80
2024/04/10 13:53:35;;;;;;;5.82;1.20;;;;;;;;;;5454018;26;20073;-80
2024/04/10 13:56:10;;;;;;;7.30;1.63;;;;;;;;;;5453679;26;20084;-81
2024/04/10 13:58:37;;;;;;;5.03;1.25;;;;;;;;;;5453800;26;20003;-80
2024/04/10 14:01:10;;;;;;;12.70;1.63;;;;;;;;;;5451838;26;20054;-80
2024/04/10 14:03:36;;;;;;;5.68;0.85;;;;;;;;;;5453980;26;20031;-80
2024/04/10 14:06:03;;;;;;;5.20;1.00;;;;;;;;;;5453528;26;20011;-81
2024/04/10 14:08:30;;;;;;;6.82;1.15;;;;;;;;;;5451940;26;20010;-80
2024/04/10 14:11:05;;;;;;;5.40;2.00;;;;;;;;;;5451646;26;20079;-80
2024/04/10 14:13:32;;;;;;;5.72;1.10;;;;;;;;;;5453597;26;20284;-81
2024/04/10 14:15:59;;;;;;;7.60;1.95;;;;;;;;;;5453774;26;20009;-81
2024/04/10 14:18:25;;;;;;;5.82;1.35;;;;;;;;;;5451836;26;20015;-80
2024/04/10 14:21:07;;;;;;;9.23;1.52;;;;;;;;;;5454516;26;19999;-82
2024/04/10 14:23:33;;;;;;;6.40;1.20;;;;;;;;;;5453621;26;20014;-82
2024/04/10 14:26:03;;;;;;;6.07;1.25;;;;;;;;;;5453517;26;20068;-81
2024/04/10 14:28:29;;;;;;;4.80;1.00;;;;;;;;;;5451849;26;19999;-81
2024/04/10 14:31:06;;;;;;;6.32;1.50;;;;;;;;;;5451357;26;20015;-80
2024/04/10 14:33:33;;;;;;;7.22;1.90;;;;;;;;;;5453345;26;19998;-81
2024/04/10 14:35:59;;;;;;;11.00;1.25;;;;;;;;;;5451077;26;20021;-80
2024/04/10 14:38:26;;;;;;;7.28;1.85;;;;;;;;;;5451328;26;20010;-81